sensor_id;sensor_type;location;lat;lon;timestamp;P1;durP1;ratioP1;P2;durP2;ratioP2
20348;SDS011;10332;50.208;18.988;2023-07-30T00:02:27;2.17;;;1.65;;
20348;SDS011;10332;50.208;18.988;2023-07-30T00:04:54;3.15;;;1.58;;
20348;SDS011;10332;50.208;18.988;2023-07-30T00:07:22;1.90;;;1.60;;
20348;SDS011;10332;50.208;18.988;2023-07-30T00:09:50;1.63;;;1.30;;
20348;SDS011;10332;50.208;18.988;2023-07-30T00:12:17;2.72;;;1.40;;
20348;SDS011;10332;50.208;18.988;2023-07-30T00:14:45;3.15;;;1.70;;
20348;SDS011;10332;50.208;18.988;2023-07-30T00:17:12;2.50;;;1.50;;
20348;SDS011;10332;50.208;18.988;2023-07-30T00:19:39;2.70;;;1.33;;
20348;SDS011;10332;50.208;18.988;2023-07-30T00:22:07;2.08;;;1.23;;
20348;SDS011;10332;50.208;18.988;2023-07-30T00:24:34;3.65;;;1.65;;
20348;SDS011;10332;50.208;18.988;2023-07-30T00:27:02;2.53;;;1.27;;
20348;SDS011;10332;50.208;18.988;2023-07-30T00:29:30;2.42;;;1.00;;
20348;SDS011;10332;50.208;18.988;2023-07-30T00:31:57;0.88;;;0.80;;
20348;SDS011;10332;50.208;18.988;2023-07-30T00:34:25;2.15;;;1.10;;
20348;SDS011;10332;50.208;18.988;2023-07-30T00:36:52;1.33;;;1.08;;
20348;SDS011;10332;50.208;18.988;2023-07-30T00:39:20;2.10;;;1.00;;
20348;SDS011;10332;50.208;18.988;2023-07-30T00:41:47;2.20;;;1.40;;
20348;SDS011;10332;50.208;18.988;2023-07-30T00:44:15;1.33;;;0.90;;
20348;SDS011;10332;50.208;18.988;2023-07-30T00:46:42;1.10;;;1.00;;
20348;SDS011;10332;50.208;18.988;2023-07-30T00:49:10;1.25;;;0.85;;
20348;SDS011;10332;50.208;18.988;2023-07-30T00:51:38;2.03;;;0.90;;
20348;SDS011;10332;50.208;18.988;2023-07-30T00:54:07;1.20;;;0.90;;
20348;SDS011;10332;50.208;18.988;2023-07-30T00:56:35;1.35;;;0.95;;
20348;SDS011;10332;50.208;18.988;2023-07-30T00:59:03;1.05;;;0.88;;
20348;SDS011;10332;50.208;18.988;2023-07-30T01:01:31;0.80;;;0.80;;
20348;SDS011;10332;50.208;18.988;2023-07-30T01:04:04;2.42;;;0.88;;
20348;SDS011;10332;50.208;18.988;2023-07-30T01:06:32;1.08;;;0.98;;
20348;SDS011;10332;50.208;18.988;2023-07-30T01:09:00;2.45;;;0.80;;
20348;SDS011;10332;50.208;18.988;2023-07-30T01:11:28;1.30;;;0.70;;
20348;SDS011;10332;50.208;18.988;2023-07-30T01:13:57;2.70;;;1.00;;
20348;SDS011;10332;50.208;18.988;2023-07-30T01:16:25;2.10;;;1.02;;
20348;SDS011;10332;50.208;18.988;2023-07-30T01:18:53;1.25;;;0.80;;
20348;SDS011;10332;50.208;18.988;2023-07-30T01:21:20;1.00;;;0.80;;
20348;SDS011;10332;50.208;18.988;2023-07-30T01:23:48;1.50;;;0.90;;
20348;SDS011;10332;50.208;18.988;2023-07-30T01:26:19;0.98;;;0.90;;
20348;SDS011;10332;50.208;18.988;2023-07-30T01:28:54;2.22;;;1.13;;
20348;SDS011;10332;50.208;18.988;2023-07-30T01:31:27;0.88;;;0.77;;
20348;SDS011;10332;50.208;18.988;2023-07-30T01:33:57;1.08;;;0.80;;
20348;SDS011;10332;50.208;18.988;2023-07-30T01:36:29;0.80;;;0.70;;
20348;SDS011;10332;50.208;18.988;2023-07-30T01:38:59;0.98;;;0.60;;
20348;SDS011;10332;50.208;18.988;2023-07-30T01:41:27;0.82;;;0.75;;
20348;SDS011;10332;50.208;18.988;2023-07-30T01:43:55;5.55;;;2.90;;
20348;SDS011;10332;50.208;18.988;2023-07-30T01:46:22;7.88;;;4.00;;
20348;SDS011;10332;50.208;18.988;2023-07-30T01:48:50;2.40;;;1.73;;
20348;SDS011;10332;50.208;18.988;2023-07-30T01:51:17;2.50;;;1.52;;
20348;SDS011;10332;50.208;18.988;2023-07-30T01:53:45;2.13;;;1.15;;
20348;SDS011;10332;50.208;18.988;2023-07-30T01:56:12;1.65;;;1.55;;
20348;SDS011;10332;50.208;18.988;2023-07-30T01:58:40;2.92;;;2.30;;
20348;SDS011;10332;50.208;18.988;2023-07-30T02:01:07;3.75;;;3.20;;
20348;SDS011;10332;50.208;18.988;2023-07-30T02:03:36;4.00;;;3.05;;
20348;SDS011;10332;50.208;18.988;2023-07-30T02:06:03;5.40;;;4.75;;
20348;SDS011;10332;50.208;18.988;2023-07-30T02:08:31;7.35;;;5.65;;
20348;SDS011;10332;50.208;18.988;2023-07-30T02:10:59;6.05;;;4.85;;
20348;SDS011;10332;50.208;18.988;2023-07-30T02:13:26;7.97;;;4.65;;
20348;SDS011;10332;50.208;18.988;2023-07-30T02:15:54;5.25;;;4.28;;
20348;SDS011;10332;50.208;18.988;2023-07-30T02:18:22;5.78;;;4.97;;
20348;SDS011;10332;50.208;18.988;2023-07-30T02:20:49;9.02;;;6.57;;
20348;SDS011;10332;50.208;18.988;2023-07-30T02:23:17;9.50;;;7.15;;
20348;SDS011;10332;50.208;18.988;2023-07-30T02:25:44;9.05;;;6.95;;
20348;SDS011;10332;50.208;18.988;2023-07-30T02:28:12;5.93;;;4.65;;
20348;SDS011;10332;50.208;18.988;2023-07-30T02:30:41;4.95;;;4.03;;
20348;SDS011;10332;50.208;18.988;2023-07-30T02:33:08;5.45;;;3.20;;
20348;SDS011;10332;50.208;18.988;2023-07-30T02:35:36;5.65;;;3.97;;
20348;SDS011;10332;50.208;18.988;2023-07-30T02:38:03;4.20;;;3.60;;
20348;SDS011;10332;50.208;18.988;2023-07-30T02:40:31;2.75;;;2.50;;
20348;SDS011;10332;50.208;18.988;2023-07-30T02:42:58;2.60;;;2.20;;
20348;SDS011;10332;50.208;18.988;2023-07-30T02:45:26;1.98;;;1.77;;
20348;SDS011;10332;50.208;18.988;2023-07-30T02:47:54;2.08;;;1.40;;
20348;SDS011;10332;50.208;18.988;2023-07-30T02:50:21;1.50;;;1.40;;
20348;SDS011;10332;50.208;18.988;2023-07-30T02:52:49;3.03;;;2.38;;
20348;SDS011;10332;50.208;18.988;2023-07-30T02:55:16;4.88;;;3.80;;
20348;SDS011;10332;50.208;18.988;2023-07-30T02:57:44;4.45;;;3.70;;
20348;SDS011;10332;50.208;18.988;2023-07-30T03:00:12;6.03;;;5.03;;
20348;SDS011;10332;50.208;18.988;2023-07-30T03:02:40;5.40;;;4.57;;
20348;SDS011;10332;50.208;18.988;2023-07-30T03:05:08;6.95;;;4.72;;
20348;SDS011;10332;50.208;18.988;2023-07-30T03:07:35;7.47;;;5.68;;
20348;SDS011;10332;50.208;18.988;2023-07-30T03:10:03;6.20;;;4.95;;
20348;SDS011;10332;50.208;18.988;2023-07-30T03:12:31;7.75;;;6.10;;
20348;SDS011;10332;50.208;18.988;2023-07-30T03:14:58;6.45;;;4.88;;
20348;SDS011;10332;50.208;18.988;2023-07-30T03:17:26;3.97;;;3.58;;
20348;SDS011;10332;50.208;18.988;2023-07-30T03:19:53;3.50;;;3.10;;
20348;SDS011;10332;50.208;18.988;2023-07-30T03:22:21;4.60;;;4.10;;
20348;SDS011;10332;50.208;18.988;2023-07-30T03:24:48;5.22;;;4.50;;
20348;SDS011;10332;50.208;18.988;2023-07-30T03:27:16;8.68;;;7.30;;
20348;SDS011;10332;50.208;18.988;2023-07-30T03:29:43;8.02;;;6.93;;
20348;SDS011;10332;50.208;18.988;2023-07-30T03:32:11;7.03;;;6.18;;
20348;SDS011;10332;50.208;18.988;2023-07-30T03:34:38;6.72;;;5.18;;
20348;SDS011;10332;50.208;18.988;2023-07-30T03:37:06;4.07;;;3.30;;
20348;SDS011;10332;50.208;18.988;2023-07-30T03:39:33;5.82;;;3.50;;
20348;SDS011;10332;50.208;18.988;2023-07-30T03:42:02;4.47;;;3.58;;
20348;SDS011;10332;50.208;18.988;2023-07-30T03:44:29;3.88;;;2.35;;
20348;SDS011;10332;50.208;18.988;2023-07-30T03:46:57;3.45;;;2.78;;
20348;SDS011;10332;50.208;18.988;2023-07-30T03:49:24;3.53;;;3.13;;
20348;SDS011;10332;50.208;18.988;2023-07-30T03:51:52;3.58;;;2.60;;
20348;SDS011;10332;50.208;18.988;2023-07-30T03:54:23;2.17;;;1.67;;
20348;SDS011;10332;50.208;18.988;2023-07-30T03:56:50;2.03;;;1.73;;
20348;SDS011;10332;50.208;18.988;2023-07-30T03:59:18;2.45;;;1.58;;
20348;SDS011;10332;50.208;18.988;2023-07-30T04:01:45;3.78;;;1.95;;
20348;SDS011;10332;50.208;18.988;2023-07-30T04:04:13;1.85;;;1.50;;
20348;SDS011;10332;50.208;18.988;2023-07-30T04:06:40;2.00;;;1.58;;
20348;SDS011;10332;50.208;18.988;2023-07-30T04:09:08;1.40;;;1.30;;
20348;SDS011;10332;50.208;18.988;2023-07-30T04:11:35;1.98;;;1.52;;
20348;SDS011;10332;50.208;18.988;2023-07-30T04:14:03;1.67;;;1.20;;
20348;SDS011;10332;50.208;18.988;2023-07-30T04:16:34;2.65;;;2.30;;
20348;SDS011;10332;50.208;18.988;2023-07-30T04:19:02;4.65;;;3.10;;
20348;SDS011;10332;50.208;18.988;2023-07-30T04:21:29;5.45;;;4.15;;
20348;SDS011;10332;50.208;18.988;2023-07-30T04:23:57;5.82;;;4.72;;
20348;SDS011;10332;50.208;18.988;2023-07-30T04:26:24;5.18;;;4.20;;
20348;SDS011;10332;50.208;18.988;2023-07-30T04:28:52;5.50;;;4.88;;
20348;SDS011;10332;50.208;18.988;2023-07-30T04:31:20;6.68;;;5.60;;
20348;SDS011;10332;50.208;18.988;2023-07-30T04:33:47;6.13;;;5.53;;
20348;SDS011;10332;50.208;18.988;2023-07-30T04:36:15;5.00;;;4.50;;
20348;SDS011;10332;50.208;18.988;2023-07-30T04:38:42;4.78;;;3.85;;
20348;SDS011;10332;50.208;18.988;2023-07-30T04:41:10;4.28;;;3.72;;
20348;SDS011;10332;50.208;18.988;2023-07-30T04:43:37;5.25;;;4.13;;
20348;SDS011;10332;50.208;18.988;2023-07-30T04:46:05;5.15;;;4.55;;
20348;SDS011;10332;50.208;18.988;2023-07-30T04:48:32;4.97;;;4.43;;
20348;SDS011;10332;50.208;18.988;2023-07-30T04:51:00;2.78;;;1.98;;
20348;SDS011;10332;50.208;18.988;2023-07-30T04:53:27;1.17;;;1.02;;
20348;SDS011;10332;50.208;18.988;2023-07-30T04:55:55;1.35;;;1.25;;
20348;SDS011;10332;50.208;18.988;2023-07-30T04:58:23;1.48;;;1.23;;
20348;SDS011;10332;50.208;18.988;2023-07-30T05:00:51;1.42;;;1.30;;
20348;SDS011;10332;50.208;18.988;2023-07-30T05:03:19;1.58;;;1.30;;
20348;SDS011;10332;50.208;18.988;2023-07-30T05:05:47;1.90;;;0.90;;
20348;SDS011;10332;50.208;18.988;2023-07-30T05:08:14;1.23;;;1.05;;
20348;SDS011;10332;50.208;18.988;2023-07-30T05:10:41;2.17;;;1.05;;
20348;SDS011;10332;50.208;18.988;2023-07-30T05:13:09;0.98;;;0.90;;
20348;SDS011;10332;50.208;18.988;2023-07-30T05:15:37;0.98;;;0.88;;
20348;SDS011;10332;50.208;18.988;2023-07-30T05:18:04;2.05;;;1.27;;
20348;SDS011;10332;50.208;18.988;2023-07-30T05:20:32;1.55;;;0.90;;
20348;SDS011;10332;50.208;18.988;2023-07-30T05:22:59;1.00;;;0.90;;
20348;SDS011;10332;50.208;18.988;2023-07-30T05:25:27;1.63;;;1.20;;
20348;SDS011;10332;50.208;18.988;2023-07-30T05:27:54;2.50;;;1.33;;
20348;SDS011;10332;50.208;18.988;2023-07-30T05:30:22;1.00;;;0.80;;
20348;SDS011;10332;50.208;18.988;2023-07-30T05:32:50;0.70;;;0.70;;
20348;SDS011;10332;50.208;18.988;2023-07-30T05:35:17;0.98;;;0.90;;
20348;SDS011;10332;50.208;18.988;2023-07-30T05:37:46;2.25;;;1.10;;
20348;SDS011;10332;50.208;18.988;2023-07-30T05:40:15;1.10;;;0.90;;
20348;SDS011;10332;50.208;18.988;2023-07-30T05:42:43;1.92;;;1.13;;
20348;SDS011;10332;50.208;18.988;2023-07-30T05:45:10;4.03;;;1.95;;
20348;SDS011;10332;50.208;18.988;2023-07-30T05:47:38;2.05;;;1.52;;
20348;SDS011;10332;50.208;18.988;2023-07-30T05:50:07;2.25;;;1.45;;
20348;SDS011;10332;50.208;18.988;2023-07-30T05:52:35;1.95;;;1.67;;
20348;SDS011;10332;50.208;18.988;2023-07-30T05:55:02;2.78;;;1.80;;
20348;SDS011;10332;50.208;18.988;2023-07-30T05:57:30;1.92;;;1.60;;
20348;SDS011;10332;50.208;18.988;2023-07-30T05:59:58;2.50;;;1.77;;
20348;SDS011;10332;50.208;18.988;2023-07-30T06:02:25;2.22;;;1.98;;
20348;SDS011;10332;50.208;18.988;2023-07-30T06:04:53;3.05;;;1.80;;
20348;SDS011;10332;50.208;18.988;2023-07-30T06:07:20;2.47;;;1.60;;
20348;SDS011;10332;50.208;18.988;2023-07-30T06:09:49;2.30;;;1.88;;
20348;SDS011;10332;50.208;18.988;2023-07-30T06:12:16;2.53;;;1.67;;
20348;SDS011;10332;50.208;18.988;2023-07-30T06:14:44;2.45;;;1.52;;
20348;SDS011;10332;50.208;18.988;2023-07-30T06:17:11;2.60;;;1.45;;
20348;SDS011;10332;50.208;18.988;2023-07-30T06:19:40;1.67;;;1.20;;
20348;SDS011;10332;50.208;18.988;2023-07-30T06:22:08;1.80;;;1.40;;
20348;SDS011;10332;50.208;18.988;2023-07-30T06:24:36;1.27;;;1.13;;
20348;SDS011;10332;50.208;18.988;2023-07-30T06:27:03;1.50;;;1.05;;
20348;SDS011;10332;50.208;18.988;2023-07-30T06:29:32;2.22;;;1.42;;
20348;SDS011;10332;50.208;18.988;2023-07-30T06:31:59;1.33;;;0.93;;
20348;SDS011;10332;50.208;18.988;2023-07-30T06:34:27;1.20;;;1.10;;
20348;SDS011;10332;50.208;18.988;2023-07-30T06:36:54;1.50;;;1.10;;
20348;SDS011;10332;50.208;18.988;2023-07-30T06:39:22;1.40;;;1.23;;
20348;SDS011;10332;50.208;18.988;2023-07-30T06:41:49;2.28;;;1.70;;
20348;SDS011;10332;50.208;18.988;2023-07-30T06:44:17;5.20;;;4.22;;
20348;SDS011;10332;50.208;18.988;2023-07-30T06:46:44;2.72;;;2.00;;
20348;SDS011;10332;50.208;18.988;2023-07-30T06:49:12;5.03;;;2.53;;
20348;SDS011;10332;50.208;18.988;2023-07-30T06:51:45;3.00;;;1.90;;
20348;SDS011;10332;50.208;18.988;2023-07-30T06:54:13;2.05;;;1.85;;
20348;SDS011;10332;50.208;18.988;2023-07-30T06:56:41;2.47;;;1.92;;
20348;SDS011;10332;50.208;18.988;2023-07-30T06:59:08;1.50;;;1.40;;
20348;SDS011;10332;50.208;18.988;2023-07-30T07:01:36;2.80;;;1.40;;
20348;SDS011;10332;50.208;18.988;2023-07-30T07:04:04;2.15;;;1.52;;
20348;SDS011;10332;50.208;18.988;2023-07-30T07:06:31;1.40;;;1.30;;
20348;SDS011;10332;50.208;18.988;2023-07-30T07:08:59;2.22;;;1.50;;
20348;SDS011;10332;50.208;18.988;2023-07-30T07:11:26;1.40;;;1.30;;
20348;SDS011;10332;50.208;18.988;2023-07-30T07:13:54;1.52;;;1.20;;
20348;SDS011;10332;50.208;18.988;2023-07-30T07:16:22;2.22;;;1.30;;
20348;SDS011;10332;50.208;18.988;2023-07-30T07:18:49;1.65;;;1.30;;
20348;SDS011;10332;50.208;18.988;2023-07-30T07:21:17;2.95;;;1.60;;
20348;SDS011;10332;50.208;18.988;2023-07-30T07:23:45;1.25;;;1.13;;
20348;SDS011;10332;50.208;18.988;2023-07-30T07:26:12;1.73;;;1.20;;
20348;SDS011;10332;50.208;18.988;2023-07-30T07:28:40;1.50;;;1.23;;
20348;SDS011;10332;50.208;18.988;2023-07-30T07:31:08;1.58;;;1.27;;
20348;SDS011;10332;50.208;18.988;2023-07-30T07:33:36;3.05;;;2.42;;
20348;SDS011;10332;50.208;18.988;2023-07-30T07:36:07;2.13;;;1.60;;
20348;SDS011;10332;50.208;18.988;2023-07-30T07:38:35;1.38;;;1.00;;
20348;SDS011;10332;50.208;18.988;2023-07-30T07:41:02;1.00;;;1.00;;
20348;SDS011;10332;50.208;18.988;2023-07-30T07:43:30;2.35;;;1.30;;
20348;SDS011;10332;50.208;18.988;2023-07-30T07:45:58;4.55;;;2.00;;
20348;SDS011;10332;50.208;18.988;2023-07-30T07:48:26;3.78;;;1.80;;
20348;SDS011;10332;50.208;18.988;2023-07-30T07:50:54;2.58;;;1.58;;
20348;SDS011;10332;50.208;18.988;2023-07-30T07:53:23;2.85;;;2.10;;
20348;SDS011;10332;50.208;18.988;2023-07-30T07:55:52;7.72;;;5.90;;
20348;SDS011;10332;50.208;18.988;2023-07-30T07:58:19;4.43;;;3.92;;
20348;SDS011;10332;50.208;18.988;2023-07-30T08:00:47;11.10;;;5.72;;
20348;SDS011;10332;50.208;18.988;2023-07-30T08:03:14;5.72;;;4.50;;
20348;SDS011;10332;50.208;18.988;2023-07-30T08:05:44;2.17;;;1.98;;
20348;SDS011;10332;50.208;18.988;2023-07-30T08:08:13;5.13;;;4.57;;
20348;SDS011;10332;50.208;18.988;2023-07-30T08:10:41;5.07;;;4.55;;
20348;SDS011;10332;50.208;18.988;2023-07-30T08:13:14;10.88;;;9.25;;
20348;SDS011;10332;50.208;18.988;2023-07-30T08:15:41;11.10;;;9.43;;
20348;SDS011;10332;50.208;18.988;2023-07-30T08:18:09;8.95;;;8.00;;
20348;SDS011;10332;50.208;18.988;2023-07-30T08:20:37;8.20;;;7.13;;
20348;SDS011;10332;50.208;18.988;2023-07-30T08:23:05;3.80;;;3.40;;
20348;SDS011;10332;50.208;18.988;2023-07-30T08:25:33;2.00;;;1.77;;
20348;SDS011;10332;50.208;18.988;2023-07-30T08:28:00;2.90;;;2.65;;
20348;SDS011;10332;50.208;18.988;2023-07-30T08:30:28;5.47;;;4.68;;
20348;SDS011;10332;50.208;18.988;2023-07-30T08:32:56;2.08;;;1.80;;
20348;SDS011;10332;50.208;18.988;2023-07-30T08:35:24;1.30;;;1.10;;
20348;SDS011;10332;50.208;18.988;2023-07-30T08:37:54;1.75;;;1.65;;
20348;SDS011;10332;50.208;18.988;2023-07-30T08:40:22;1.65;;;1.55;;
20348;SDS011;10332;50.208;18.988;2023-07-30T08:42:51;2.60;;;1.80;;
20348;SDS011;10332;50.208;18.988;2023-07-30T08:45:19;3.20;;;2.90;;
20348;SDS011;10332;50.208;18.988;2023-07-30T08:47:47;2.28;;;2.08;;
20348;SDS011;10332;50.208;18.988;2023-07-30T08:50:15;1.40;;;1.30;;
20348;SDS011;10332;50.208;18.988;2023-07-30T08:52:44;1.52;;;1.42;;
20348;SDS011;10332;50.208;18.988;2023-07-30T08:55:14;1.25;;;1.15;;
20348;SDS011;10332;50.208;18.988;2023-07-30T08:57:44;1.13;;;1.02;;
20348;SDS011;10332;50.208;18.988;2023-07-30T09:00:15;1.70;;;1.52;;
20348;SDS011;10332;50.208;18.988;2023-07-30T09:02:50;2.42;;;1.50;;
20348;SDS011;10332;50.208;18.988;2023-07-30T09:05:21;3.40;;;3.10;;
20348;SDS011;10332;50.208;18.988;2023-07-30T09:07:50;10.38;;;7.53;;
20348;SDS011;10332;50.208;18.988;2023-07-30T09:10:17;13.18;;;11.00;;
20348;SDS011;10332;50.208;18.988;2023-07-30T09:12:45;3.60;;;3.30;;
20348;SDS011;10332;50.208;18.988;2023-07-30T09:15:31;3.38;;;3.05;;
20348;SDS011;10332;50.208;18.988;2023-07-30T09:18:22;8.82;;;7.70;;
20348;SDS011;10332;50.208;18.988;2023-07-30T09:20:49;8.68;;;7.78;;
20348;SDS011;10332;50.208;18.988;2023-07-30T09:23:18;9.25;;;8.35;;
20348;SDS011;10332;50.208;18.988;2023-07-30T09:25:47;4.75;;;4.00;;
20348;SDS011;10332;50.208;18.988;2023-07-30T09:28:16;3.42;;;2.53;;
20348;SDS011;10332;50.208;18.988;2023-07-30T09:30:48;1.70;;;1.60;;
20348;SDS011;10332;50.208;18.988;2023-07-30T09:33:18;1.80;;;1.70;;
20348;SDS011;10332;50.208;18.988;2023-07-30T09:35:47;2.50;;;2.17;;
20348;SDS011;10332;50.208;18.988;2023-07-30T09:38:18;6.20;;;5.60;;
20348;SDS011;10332;50.208;18.988;2023-07-30T09:40:47;5.97;;;5.38;;
20348;SDS011;10332;50.208;18.988;2023-07-30T09:43:20;4.88;;;4.25;;
20348;SDS011;10332;50.208;18.988;2023-07-30T09:45:47;3.60;;;3.30;;
20348;SDS011;10332;50.208;18.988;2023-07-30T09:48:15;3.80;;;3.30;;
20348;SDS011;10332;50.208;18.988;2023-07-30T09:50:43;2.30;;;2.10;;
20348;SDS011;10332;50.208;18.988;2023-07-30T09:53:11;4.72;;;4.03;;
20348;SDS011;10332;50.208;18.988;2023-07-30T09:55:43;3.28;;;2.88;;
20348;SDS011;10332;50.208;18.988;2023-07-30T09:58:12;1.35;;;1.25;;
20348;SDS011;10332;50.208;18.988;2023-07-30T10:00:40;2.10;;;1.90;;
20348;SDS011;10332;50.208;18.988;2023-07-30T10:03:09;1.35;;;1.25;;
20348;SDS011;10332;50.208;18.988;2023-07-30T10:05:41;4.10;;;3.70;;
20348;SDS011;10332;50.208;18.988;2023-07-30T10:08:17;5.70;;;5.20;;
20348;SDS011;10332;50.208;18.988;2023-07-30T10:10:51;6.03;;;5.35;;
20348;SDS011;10332;50.208;18.988;2023-07-30T10:13:22;10.90;;;9.80;;
20348;SDS011;10332;50.208;18.988;2023-07-30T10:15:50;7.57;;;6.85;;
20348;SDS011;10332;50.208;18.988;2023-07-30T10:18:19;2.80;;;2.60;;
20348;SDS011;10332;50.208;18.988;2023-07-30T10:20:54;2.60;;;2.40;;
20348;SDS011;10332;50.208;18.988;2023-07-30T10:23:27;1.70;;;1.50;;
20348;SDS011;10332;50.208;18.988;2023-07-30T10:25:54;1.40;;;1.20;;
20348;SDS011;10332;50.208;18.988;2023-07-30T10:30:58;8.30;;;7.50;;
20348;SDS011;10332;50.208;18.988;2023-07-30T10:33:44;4.57;;;3.88;;
20348;SDS011;10332;50.208;18.988;2023-07-30T10:36:30;3.75;;;2.40;;
20348;SDS011;10332;50.208;18.988;2023-07-30T10:39:19;2.40;;;2.20;;
20348;SDS011;10332;50.208;18.988;2023-07-30T10:41:56;1.60;;;1.50;;
20348;SDS011;10332;50.208;18.988;2023-07-30T10:44:33;1.25;;;1.15;;
20348;SDS011;10332;50.208;18.988;2023-07-30T10:47:02;1.30;;;1.20;;
20348;SDS011;10332;50.208;18.988;2023-07-30T10:49:37;1.42;;;1.33;;
20348;SDS011;10332;50.208;18.988;2023-07-30T10:52:07;1.38;;;1.27;;
20348;SDS011;10332;50.208;18.988;2023-07-30T10:54:36;2.38;;;1.75;;
20348;SDS011;10332;50.208;18.988;2023-07-30T10:57:05;2.15;;;1.95;;
20348;SDS011;10332;50.208;18.988;2023-07-30T10:59:36;1.90;;;1.70;;
20348;SDS011;10332;50.208;18.988;2023-07-30T11:02:05;1.10;;;1.00;;
20348;SDS011;10332;50.208;18.988;2023-07-30T11:04:35;1.50;;;1.40;;
20348;SDS011;10332;50.208;18.988;2023-07-30T11:07:03;1.00;;;1.00;;
20348;SDS011;10332;50.208;18.988;2023-07-30T11:09:31;1.20;;;1.10;;
20348;SDS011;10332;50.208;18.988;2023-07-30T11:11:58;1.20;;;1.10;;
20348;SDS011;10332;50.208;18.988;2023-07-30T11:14:26;1.70;;;1.60;;
20348;SDS011;10332;50.208;18.988;2023-07-30T11:16:56;2.42;;;2.08;;
20348;SDS011;10332;50.208;18.988;2023-07-30T11:19:27;5.47;;;4.85;;
20348;SDS011;10332;50.208;18.988;2023-07-30T11:21:56;15.05;;;13.45;;
20348;SDS011;10332;50.208;18.988;2023-07-30T11:24:34;11.93;;;10.63;;
20348;SDS011;10332;50.208;18.988;2023-07-30T11:27:03;6.43;;;5.63;;
20348;SDS011;10332;50.208;18.988;2023-07-30T11:29:31;4.93;;;3.40;;
20348;SDS011;10332;50.208;18.988;2023-07-30T11:32:01;3.47;;;2.97;;
20348;SDS011;10332;50.208;18.988;2023-07-30T11:34:31;3.10;;;2.40;;
20348;SDS011;10332;50.208;18.988;2023-07-30T11:37:04;1.80;;;1.58;;
20348;SDS011;10332;50.208;18.988;2023-07-30T11:39:33;1.60;;;1.50;;
20348;SDS011;10332;50.208;18.988;2023-07-30T11:42:00;2.08;;;1.55;;
20348;SDS011;10332;50.208;18.988;2023-07-30T11:44:35;1.48;;;1.38;;
20348;SDS011;10332;50.208;18.988;2023-07-30T11:47:08;3.22;;;2.28;;
20348;SDS011;10332;50.208;18.988;2023-07-30T11:49:39;4.47;;;3.10;;
20348;SDS011;10332;50.208;18.988;2023-07-30T11:52:06;3.20;;;2.72;;
20348;SDS011;10332;50.208;18.988;2023-07-30T11:54:36;1.98;;;1.70;;
20348;SDS011;10332;50.208;18.988;2023-07-30T11:57:04;2.47;;;2.28;;
20348;SDS011;10332;50.208;18.988;2023-07-30T11:59:32;1.90;;;1.80;;
20348;SDS011;10332;50.208;18.988;2023-07-30T12:02:00;2.75;;;1.98;;
20348;SDS011;10332;50.208;18.988;2023-07-30T12:04:41;2.25;;;2.05;;
20348;SDS011;10332;50.208;18.988;2023-07-30T12:07:10;3.63;;;2.63;;
20348;SDS011;10332;50.208;18.988;2023-07-30T12:09:38;2.95;;;1.90;;
20348;SDS011;10332;50.208;18.988;2023-07-30T12:12:06;3.67;;;3.30;;
20348;SDS011;10332;50.208;18.988;2023-07-30T12:14:43;7.25;;;6.55;;
20348;SDS011;10332;50.208;18.988;2023-07-30T12:17:21;4.50;;;2.70;;
20348;SDS011;10332;50.208;18.988;2023-07-30T12:19:49;3.85;;;2.95;;
20348;SDS011;10332;50.208;18.988;2023-07-30T12:22:16;1.88;;;1.77;;
20348;SDS011;10332;50.208;18.988;2023-07-30T12:24:44;2.05;;;1.85;;
20348;SDS011;10332;50.208;18.988;2023-07-30T12:27:11;2.33;;;1.60;;
20348;SDS011;10332;50.208;18.988;2023-07-30T12:29:39;2.28;;;1.90;;
20348;SDS011;10332;50.208;18.988;2023-07-30T12:32:06;3.65;;;3.00;;
20348;SDS011;10332;50.208;18.988;2023-07-30T12:34:34;2.42;;;1.90;;
20348;SDS011;10332;50.208;18.988;2023-07-30T12:37:01;2.17;;;1.98;;
20348;SDS011;10332;50.208;18.988;2023-07-30T12:39:29;3.60;;;2.70;;
20348;SDS011;10332;50.208;18.988;2023-07-30T12:41:56;1.98;;;1.88;;
20348;SDS011;10332;50.208;18.988;2023-07-30T12:44:24;2.15;;;1.83;;
20348;SDS011;10332;50.208;18.988;2023-07-30T12:46:51;2.10;;;1.77;;
20348;SDS011;10332;50.208;18.988;2023-07-30T12:49:19;2.60;;;2.20;;
20348;SDS011;10332;50.208;18.988;2023-07-30T12:51:47;2.40;;;1.77;;
20348;SDS011;10332;50.208;18.988;2023-07-30T12:54:14;1.90;;;1.80;;
20348;SDS011;10332;50.208;18.988;2023-07-30T12:56:42;2.83;;;2.22;;
20348;SDS011;10332;50.208;18.988;2023-07-30T12:59:09;2.15;;;1.95;;
20348;SDS011;10332;50.208;18.988;2023-07-30T13:01:36;2.92;;;1.77;;
20348;SDS011;10332;50.208;18.988;2023-07-30T13:04:04;2.22;;;1.60;;
20348;SDS011;10332;50.208;18.988;2023-07-30T13:06:32;2.15;;;1.88;;
20348;SDS011;10332;50.208;18.988;2023-07-30T13:09:00;1.98;;;1.80;;
20348;SDS011;10332;50.208;18.988;2023-07-30T13:11:27;2.03;;;1.50;;
20348;SDS011;10332;50.208;18.988;2023-07-30T13:13:56;1.67;;;1.58;;
20348;SDS011;10332;50.208;18.988;2023-07-30T13:16:24;1.90;;;1.73;;
20348;SDS011;10332;50.208;18.988;2023-07-30T13:18:51;1.88;;;1.40;;
20348;SDS011;10332;50.208;18.988;2023-07-30T13:21:19;1.60;;;1.50;;
20348;SDS011;10332;50.208;18.988;2023-07-30T13:23:48;2.80;;;1.73;;
20348;SDS011;10332;50.208;18.988;2023-07-30T13:26:16;1.67;;;1.40;;
20348;SDS011;10332;50.208;18.988;2023-07-30T13:28:43;1.50;;;1.40;;
20348;SDS011;10332;50.208;18.988;2023-07-30T13:31:11;2.63;;;1.50;;
20348;SDS011;10332;50.208;18.988;2023-07-30T13:33:39;10.05;;;8.88;;
20348;SDS011;10332;50.208;18.988;2023-07-30T13:36:06;4.72;;;3.75;;
20348;SDS011;10332;50.208;18.988;2023-07-30T13:38:42;4.90;;;4.40;;
20348;SDS011;10332;50.208;18.988;2023-07-30T13:41:10;3.13;;;2.25;;
20348;SDS011;10332;50.208;18.988;2023-07-30T13:43:38;1.73;;;1.50;;
20348;SDS011;10332;50.208;18.988;2023-07-30T13:46:05;2.15;;;1.60;;
20348;SDS011;10332;50.208;18.988;2023-07-30T13:48:33;1.42;;;1.33;;
20348;SDS011;10332;50.208;18.988;2023-07-30T13:51:01;1.52;;;1.40;;
20348;SDS011;10332;50.208;18.988;2023-07-30T13:53:28;1.50;;;1.40;;
20348;SDS011;10332;50.208;18.988;2023-07-30T13:55:56;1.67;;;1.40;;
20348;SDS011;10332;50.208;18.988;2023-07-30T13:58:24;3.03;;;2.72;;
20348;SDS011;10332;50.208;18.988;2023-07-30T14:00:53;3.78;;;2.70;;
20348;SDS011;10332;50.208;18.988;2023-07-30T14:03:22;4.22;;;3.78;;
20348;SDS011;10332;50.208;18.988;2023-07-30T14:05:49;3.15;;;2.30;;
20348;SDS011;10332;50.208;18.988;2023-07-30T14:08:17;1.80;;;1.70;;
20348;SDS011;10332;50.208;18.988;2023-07-30T14:10:45;1.60;;;1.50;;
20348;SDS011;10332;50.208;18.988;2023-07-30T14:13:12;1.60;;;1.45;;
20348;SDS011;10332;50.208;18.988;2023-07-30T14:15:46;1.65;;;1.55;;
20348;SDS011;10332;50.208;18.988;2023-07-30T14:18:14;2.03;;;1.83;;
20348;SDS011;10332;50.208;18.988;2023-07-30T14:20:41;2.28;;;1.70;;
20348;SDS011;10332;50.208;18.988;2023-07-30T14:23:09;2.13;;;1.88;;
20348;SDS011;10332;50.208;18.988;2023-07-30T14:25:38;4.28;;;3.10;;
20348;SDS011;10332;50.208;18.988;2023-07-30T14:28:06;5.68;;;4.20;;
20348;SDS011;10332;50.208;18.988;2023-07-30T14:30:33;2.97;;;2.08;;
20348;SDS011;10332;50.208;18.988;2023-07-30T14:33:02;2.40;;;2.20;;
20348;SDS011;10332;50.208;18.988;2023-07-30T14:35:30;3.17;;;2.63;;
20348;SDS011;10332;50.208;18.988;2023-07-30T14:37:58;3.33;;;2.60;;
20348;SDS011;10332;50.208;18.988;2023-07-30T14:40:25;5.78;;;4.45;;
20348;SDS011;10332;50.208;18.988;2023-07-30T14:42:53;12.13;;;9.50;;
20348;SDS011;10332;50.208;18.988;2023-07-30T14:45:20;2.90;;;2.53;;